sensor_id;sensor_type;location;lat;lon;timestamp;pressure;altitude;pressure_sealevel;temperature;humidity
75166;BME280;63747;48.042;10.088;2022-12-29T00:01:10;94964.06;;;4.19;54.49
75166;BME280;63747;48.042;10.088;2022-12-29T00:04:13;94957.59;;;4.23;54.15
75166;BME280;63747;48.042;10.088;2022-12-29T00:07:14;94954.00;;;4.24;54.20
75166;BME280;63747;48.042;10.088;2022-12-29T00:10:15;94952.88;;;4.27;53.77
75166;BME280;63747;48.042;10.088;2022-12-29T00:13:15;94950.00;;;4.30;53.95
75166;BME280;63747;48.042;10.088;2022-12-29T00:16:36;94948.44;;;4.37;53.43
75166;BME280;63747;48.042;10.088;2022-12-29T00:19:37;94942.78;;;4.42;53.20
75166;BME280;63747;48.042;10.088;2022-12-29T00:22:56;94952.84;;;4.46;53.07
75166;BME280;63747;48.042;10.088;2022-12-29T00:26:17;94941.09;;;4.50;52.71
75166;BME280;63747;48.042;10.088;2022-12-29T00:29:36;94947.69;;;4.54;52.76
75166;BME280;63747;48.042;10.088;2022-12-29T00:32:56;94954.31;;;4.58;53.03
75166;BME280;63747;48.042;10.088;2022-12-29T00:36:18;94960.00;;;4.64;52.72
75166;BME280;63747;48.042;10.088;2022-12-29T00:39:20;94959.69;;;4.67;52.58
75166;BME280;63747;48.042;10.088;2022-12-29T00:42:40;94951.53;;;4.70;52.40
75166;BME280;63747;48.042;10.088;2022-12-29T00:45:59;94955.66;;;4.72;52.30
75166;BME280;63747;48.042;10.088;2022-12-29T00:49:01;94959.25;;;4.71;52.21
75166;BME280;63747;48.042;10.088;2022-12-29T00:52:20;94966.59;;;4.68;52.15
75166;BME280;63747;48.042;10.088;2022-12-29T00:55:21;94956.94;;;4.68;52.15
75166;BME280;63747;48.042;10.088;2022-12-29T00:58:21;94958.59;;;4.69;52.00
75166;BME280;63747;48.042;10.088;2022-12-29T01:01:22;94955.00;;;4.70;51.79
75166;BME280;63747;48.042;10.088;2022-12-29T01:04:25;94949.16;;;4.76;51.75
75166;BME280;63747;48.042;10.088;2022-12-29T01:07:26;94964.22;;;4.74;51.92
75166;BME280;63747;48.042;10.088;2022-12-29T01:10:26;94957.63;;;4.70;51.54
75166;BME280;63747;48.042;10.088;2022-12-29T01:13:27;94964.38;;;4.73;51.65
75166;BME280;63747;48.042;10.088;2022-12-29T01:16:28;94960.75;;;4.74;51.80
75166;BME280;63747;48.042;10.088;2022-12-29T01:19:29;94951.94;;;4.75;51.80
75166;BME280;63747;48.042;10.088;2022-12-29T01:22:29;94952.78;;;4.75;51.59
75166;BME280;63747;48.042;10.088;2022-12-29T01:25:30;94960.19;;;4.80;51.60
75166;BME280;63747;48.042;10.088;2022-12-29T01:28:31;94953.84;;;4.82;51.48
75166;BME280;63747;48.042;10.088;2022-12-29T01:31:31;94953.53;;;4.85;51.67
75166;BME280;63747;48.042;10.088;2022-12-29T01:34:32;94950.91;;;4.85;51.49
75166;BME280;63747;48.042;10.088;2022-12-29T01:37:33;94955.19;;;4.86;51.70
75166;BME280;63747;48.042;10.088;2022-12-29T01:40:33;94950.09;;;4.85;51.46
75166;BME280;63747;48.042;10.088;2022-12-29T01:46:49;94953.53;;;4.95;51.46
75166;BME280;63747;48.042;10.088;2022-12-29T01:49:53;94955.16;;;4.96;51.58
75166;BME280;63747;48.042;10.088;2022-12-29T01:53:00;94946.31;;;4.97;51.53
75166;BME280;63747;48.042;10.088;2022-12-29T01:56:05;94939.09;;;4.99;51.47
75166;BME280;63747;48.042;10.088;2022-12-29T01:59:14;94941.47;;;5.02;51.34
75166;BME280;63747;48.042;10.088;2022-12-29T02:02:16;94944.59;;;5.06;51.42
75166;BME280;63747;48.042;10.088;2022-12-29T02:05:25;94937.41;;;5.08;51.40
75166;BME280;63747;48.042;10.088;2022-12-29T02:08:28;94930.34;;;5.08;51.64
75166;BME280;63747;48.042;10.088;2022-12-29T02:11:30;94924.13;;;5.09;51.50
75166;BME280;63747;48.042;10.088;2022-12-29T02:14:31;94929.25;;;5.11;51.55
75166;BME280;63747;48.042;10.088;2022-12-29T02:17:58;94924.97;;;5.10;51.52
75166;BME280;63747;48.042;10.088;2022-12-29T02:24:50;94929.47;;;5.18;51.49
75166;BME280;63747;48.042;10.088;2022-12-29T02:35:50;94916.66;;;5.32;50.90
75166;BME280;63747;48.042;10.088;2022-12-29T02:39:12;94914.41;;;5.37;50.68
75166;BME280;63747;48.042;10.088;2022-12-29T02:42:05;94909.56;;;5.42;51.04
75166;BME280;63747;48.042;10.088;2022-12-29T02:45:18;94917.56;;;5.41;51.32
75166;BME280;63747;48.042;10.088;2022-12-29T02:48:52;94908.69;;;5.42;51.39
75166;BME280;63747;48.042;10.088;2022-12-29T02:52:01;94907.28;;;5.48;51.01
75166;BME280;63747;48.042;10.088;2022-12-29T02:55:04;94903.22;;;5.53;50.93
75166;BME280;63747;48.042;10.088;2022-12-29T02:58:19;94904.72;;;5.56;50.55
75166;BME280;63747;48.042;10.088;2022-12-29T03:01:45;94888.00;;;5.57;50.35
75166;BME280;63747;48.042;10.088;2022-12-29T03:05:28;94901.66;;;5.60;50.02
75166;BME280;63747;48.042;10.088;2022-12-29T03:08:37;94898.59;;;5.65;50.35
75166;BME280;63747;48.042;10.088;2022-12-29T03:11:51;94896.09;;;5.63;50.14
75166;BME280;63747;48.042;10.088;2022-12-29T03:15:13;94902.69;;;5.67;50.00
75166;BME280;63747;48.042;10.088;2022-12-29T03:18:39;94893.16;;;5.66;50.15
75166;BME280;63747;48.042;10.088;2022-12-29T03:21:48;94881.28;;;5.62;50.19
75166;BME280;63747;48.042;10.088;2022-12-29T03:25:17;94890.31;;;5.60;50.29
75166;BME280;63747;48.042;10.088;2022-12-29T03:28:26;94885.88;;;5.60;50.09
75166;BME280;63747;48.042;10.088;2022-12-29T03:31:28;94891.97;;;5.61;50.10
75166;BME280;63747;48.042;10.088;2022-12-29T03:34:30;94898.19;;;5.60;50.30
75166;BME280;63747;48.042;10.088;2022-12-29T03:37:37;94883.25;;;5.60;50.31
75166;BME280;63747;48.042;10.088;2022-12-29T03:40:43;94878.00;;;5.60;50.30
75166;BME280;63747;48.042;10.088;2022-12-29T03:43:46;94886.69;;;5.61;50.44
75166;BME280;63747;48.042;10.088;2022-12-29T03:46:46;94886.19;;;5.57;50.36
75166;BME280;63747;48.042;10.088;2022-12-29T03:49:48;94882.59;;;5.58;50.49
75166;BME280;63747;48.042;10.088;2022-12-29T03:52:49;94881.44;;;5.61;50.51
75166;BME280;63747;48.042;10.088;2022-12-29T03:55:50;94887.00;;;5.58;50.25
75166;BME280;63747;48.042;10.088;2022-12-29T03:58:50;94881.75;;;5.58;50.46
75166;BME280;63747;48.042;10.088;2022-12-29T04:01:51;94883.41;;;5.59;50.49
75166;BME280;63747;48.042;10.088;2022-12-29T04:04:52;94877.31;;;5.58;50.40
75166;BME280;63747;48.042;10.088;2022-12-29T04:07:52;94885.38;;;5.57;50.50
75166;BME280;63747;48.042;10.088;2022-12-29T04:10:53;94880.78;;;5.59;50.47
75166;BME280;63747;48.042;10.088;2022-12-29T04:13:54;94893.59;;;5.62;50.30
75166;BME280;63747;48.042;10.088;2022-12-29T04:16:55;94890.03;;;5.63;50.33
75166;BME280;63747;48.042;10.088;2022-12-29T04:19:55;94887.41;;;5.63;50.37
75166;BME280;63747;48.042;10.088;2022-12-29T04:23:16;94888.06;;;5.65;50.55
75166;BME280;63747;48.042;10.088;2022-12-29T04:26:16;94891.34;;;5.67;50.25
75166;BME280;63747;48.042;10.088;2022-12-29T04:29:17;94894.53;;;5.70;50.11
75166;BME280;63747;48.042;10.088;2022-12-29T04:32:18;94895.47;;;5.69;50.52
75166;BME280;63747;48.042;10.088;2022-12-29T04:35:18;94882.50;;;5.68;50.40
75166;BME280;63747;48.042;10.088;2022-12-29T04:38:20;94887.75;;;5.68;50.27
75166;BME280;63747;48.042;10.088;2022-12-29T04:41:21;94881.16;;;5.64;50.53
75166;BME280;63747;48.042;10.088;2022-12-29T04:44:22;94881.00;;;5.65;50.65
75166;BME280;63747;48.042;10.088;2022-12-29T04:47:22;94878.75;;;5.70;50.61
75166;BME280;63747;48.042;10.088;2022-12-29T04:50:23;94875.81;;;5.74;50.67
75166;BME280;63747;48.042;10.088;2022-12-29T04:53:24;94880.91;;;5.75;51.11
75166;BME280;63747;48.042;10.088;2022-12-29T04:56:24;94869.41;;;5.76;50.85
75166;BME280;63747;48.042;10.088;2022-12-29T04:59:25;94865.50;;;5.80;51.16
75166;BME280;63747;48.042;10.088;2022-12-29T05:02:26;94862.59;;;5.83;51.68
75166;BME280;63747;48.042;10.088;2022-12-29T05:05:26;94862.66;;;5.91;51.66
75166;BME280;63747;48.042;10.088;2022-12-29T05:08:27;94872.88;;;5.94;51.81
75166;BME280;63747;48.042;10.088;2022-12-29T05:11:28;94861.25;;;5.97;52.02
75166;BME280;63747;48.042;10.088;2022-12-29T05:14:28;94863.88;;;5.97;51.97
75166;BME280;63747;48.042;10.088;2022-12-29T05:17:29;94864.38;;;6.01;52.22
75166;BME280;63747;48.042;10.088;2022-12-29T05:20:30;94870.00;;;6.06;52.52
75166;BME280;63747;48.042;10.088;2022-12-29T05:23:30;94866.22;;;6.08;52.68
75166;BME280;63747;48.042;10.088;2022-12-29T05:26:31;94864.41;;;6.09;52.76
75166;BME280;63747;48.042;10.088;2022-12-29T05:29:32;94864.41;;;6.09;52.83
75166;BME280;63747;48.042;10.088;2022-12-29T05:32:32;94873.31;;;6.08;52.68
75166;BME280;63747;48.042;10.088;2022-12-29T05:35:33;94870.28;;;6.03;52.90
75166;BME280;63747;48.042;10.088;2022-12-29T05:38:34;94874.59;;;6.04;52.88
75166;BME280;63747;48.042;10.088;2022-12-29T05:41:35;94878.06;;;6.04;52.81
75166;BME280;63747;48.042;10.088;2022-12-29T05:44:36;94877.97;;;5.96;52.50
75166;BME280;63747;48.042;10.088;2022-12-29T05:47:36;94882.88;;;5.91;52.86
75166;BME280;63747;48.042;10.088;2022-12-29T05:50:37;94876.09;;;5.88;53.22
75166;BME280;63747;48.042;10.088;2022-12-29T05:53:38;94874.69;;;5.94;53.36
75166;BME280;63747;48.042;10.088;2022-12-29T05:56:38;94868.75;;;5.92;53.32
75166;BME280;63747;48.042;10.088;2022-12-29T05:59:39;94880.09;;;5.92;53.45
75166;BME280;63747;48.042;10.088;2022-12-29T06:02:40;94879.44;;;5.90;53.50
75166;BME280;63747;48.042;10.088;2022-12-29T06:05:41;94889.25;;;5.88;53.40
75166;BME280;63747;48.042;10.088;2022-12-29T06:08:42;94884.81;;;5.89;53.45
75166;BME280;63747;48.042;10.088;2022-12-29T06:11:42;94888.72;;;5.85;53.27
75166;BME280;63747;48.042;10.088;2022-12-29T06:14:43;94891.34;;;5.85;53.15
75166;BME280;63747;48.042;10.088;2022-12-29T06:17:44;94895.91;;;5.83;53.10
75166;BME280;63747;48.042;10.088;2022-12-29T06:20:44;94891.22;;;5.86;53.19
75166;BME280;63747;48.042;10.088;2022-12-29T06:23:45;94891.34;;;5.85;53.39
75166;BME280;63747;48.042;10.088;2022-12-29T06:26:46;94887.91;;;5.84;53.50
75166;BME280;63747;48.042;10.088;2022-12-29T06:29:46;94907.00;;;5.86;53.38
75166;BME280;63747;48.042;10.088;2022-12-29T06:32:47;94908.66;;;5.87;53.28
75166;BME280;63747;48.042;10.088;2022-12-29T06:35:48;94903.00;;;5.82;53.42
75166;BME280;63747;48.042;10.088;2022-12-29T06:38:49;94906.31;;;5.84;53.39
75166;BME280;63747;48.042;10.088;2022-12-29T06:41:53;94911.56;;;5.84;53.41
75166;BME280;63747;48.042;10.088;2022-12-29T06:44:53;94913.09;;;5.87;53.16
75166;BME280;63747;48.042;10.088;2022-12-29T06:47:56;94921.28;;;5.84;52.96
75166;BME280;63747;48.042;10.088;2022-12-29T06:50:57;94919.59;;;5.83;52.91
75166;BME280;63747;48.042;10.088;2022-12-29T06:53:58;94915.19;;;5.83;52.92
75166;BME280;63747;48.042;10.088;2022-12-29T06:56:59;94915.31;;;5.82;52.78
75166;BME280;63747;48.042;10.088;2022-12-29T07:00:00;94919.75;;;5.81;53.31
75166;BME280;63747;48.042;10.088;2022-12-29T07:03:01;94912.84;;;5.80;52.57
75166;BME280;63747;48.042;10.088;2022-12-29T07:06:01;94911.34;;;5.78;52.45
75166;BME280;63747;48.042;10.088;2022-12-29T07:09:02;94918.94;;;5.81;52.53
75166;BME280;63747;48.042;10.088;2022-12-29T07:12:03;94920.44;;;5.83;52.58
75166;BME280;63747;48.042;10.088;2022-12-29T07:15:04;94919.34;;;5.86;52.73
75166;BME280;63747;48.042;10.088;2022-12-29T07:18:05;94915.56;;;5.88;52.84
75166;BME280;63747;48.042;10.088;2022-12-29T07:21:06;94910.31;;;5.88;53.17
75166;BME280;63747;48.042;10.088;2022-12-29T07:24:07;94923.06;;;6.01;53.02
75166;BME280;63747;48.042;10.088;2022-12-29T07:27:07;94925.25;;;6.06;53.04
75166;BME280;63747;48.042;10.088;2022-12-29T07:30:08;94932.72;;;6.10;53.01
75166;BME280;63747;48.042;10.088;2022-12-29T07:33:09;94931.13;;;6.17;53.30
75166;BME280;63747;48.042;10.088;2022-12-29T07:36:11;94933.44;;;6.20;53.53
75166;BME280;63747;48.042;10.088;2022-12-29T07:39:12;94926.19;;;6.22;53.10
75166;BME280;63747;48.042;10.088;2022-12-29T07:42:13;94927.56;;;6.27;53.22
75166;BME280;63747;48.042;10.088;2022-12-29T07:45:14;94924.47;;;6.31;53.50
75166;BME280;63747;48.042;10.088;2022-12-29T07:48:14;94927.31;;;6.38;53.59
75166;BME280;63747;48.042;10.088;2022-12-29T07:51:15;94945.56;;;6.39;53.54
75166;BME280;63747;48.042;10.088;2022-12-29T07:54:16;94933.25;;;6.40;53.80
75166;BME280;63747;48.042;10.088;2022-12-29T07:57:19;94933.91;;;6.42;53.96
75166;BME280;63747;48.042;10.088;2022-12-29T08:00:21;94936.25;;;6.45;54.08
75166;BME280;63747;48.042;10.088;2022-12-29T08:03:22;94929.50;;;6.50;54.17
75166;BME280;63747;48.042;10.088;2022-12-29T08:06:23;94932.50;;;6.56;54.30
75166;BME280;63747;48.042;10.088;2022-12-29T08:09:24;94927.81;;;6.67;54.37
75166;BME280;63747;48.042;10.088;2022-12-29T08:12:24;94937.06;;;6.71;54.71
75166;BME280;63747;48.042;10.088;2022-12-29T08:15:25;94925.03;;;6.77;54.57
75166;BME280;63747;48.042;10.088;2022-12-29T08:18:26;94920.81;;;6.84;54.42
75166;BME280;63747;48.042;10.088;2022-12-29T08:21:27;94929.25;;;6.96;54.57
75166;BME280;63747;48.042;10.088;2022-12-29T08:24:28;94938.81;;;6.97;54.26
75166;BME280;63747;48.042;10.088;2022-12-29T08:27:29;94937.16;;;6.96;54.32
75166;BME280;63747;48.042;10.088;2022-12-29T08:30:30;94944.28;;;7.03;54.02
75166;BME280;63747;48.042;10.088;2022-12-29T08:33:31;94949.38;;;7.05;53.60
75166;BME280;63747;48.042;10.088;2022-12-29T08:36:31;94950.38;;;7.04;53.29
75166;BME280;63747;48.042;10.088;2022-12-29T08:39:32;94950.69;;;7.01;53.23
75166;BME280;63747;48.042;10.088;2022-12-29T08:42:33;94958.44;;;7.02;53.05
75166;BME280;63747;48.042;10.088;2022-12-29T08:45:34;94950.69;;;7.01;52.67
75166;BME280;63747;48.042;10.088;2022-12-29T08:48:35;94968.16;;;7.02;52.42
75166;BME280;63747;48.042;10.088;2022-12-29T08:51:36;94948.72;;;7.03;52.58
75166;BME280;63747;48.042;10.088;2022-12-29T08:54:36;94958.44;;;7.02;52.41
75166;BME280;63747;48.042;10.088;2022-12-29T08:57:37;94957.00;;;7.08;52.41
75166;BME280;63747;48.042;10.088;2022-12-29T09:00:38;94955.84;;;7.11;51.71
75166;BME280;63747;48.042;10.088;2022-12-29T09:03:38;94954.03;;;7.11;51.76
75166;BME280;63747;48.042;10.088;2022-12-29T09:06:39;94949.75;;;7.10;51.55
75166;BME280;63747;48.042;10.088;2022-12-29T09:09:39;94947.81;;;7.12;51.05
75166;BME280;63747;48.042;10.088;2022-12-29T09:12:40;94968.72;;;7.14;50.99
75166;BME280;63747;48.042;10.088;2022-12-29T09:15:41;94963.28;;;7.15;50.59
75166;BME280;63747;48.042;10.088;2022-12-29T09:18:42;94957.69;;;7.18;50.48
75166;BME280;63747;48.042;10.088;2022-12-29T09:21:43;94955.22;;;7.17;50.40
75166;BME280;63747;48.042;10.088;2022-12-29T09:24:44;94953.09;;;7.20;50.40
75166;BME280;63747;48.042;10.088;2022-12-29T09:27:45;94955.22;;;7.25;50.04
75166;BME280;63747;48.042;10.088;2022-12-29T09:30:48;94945.50;;;7.25;49.76
75166;BME280;63747;48.042;10.088;2022-12-29T09:33:48;94957.56;;;7.28;49.63
75166;BME280;63747;48.042;10.088;2022-12-29T09:36:49;94961.69;;;7.30;49.52
75166;BME280;63747;48.042;10.088;2022-12-29T09:39:50;94968.31;;;7.34;49.48
75166;BME280;63747;48.042;10.088;2022-12-29T09:46:29;94968.94;;;7.28;49.12
75166;BME280;63747;48.042;10.088;2022-12-29T09:49:49;94973.19;;;7.21;48.88
75166;BME280;63747;48.042;10.088;2022-12-29T09:52:54;94965.78;;;7.25;48.89
75166;BME280;63747;48.042;10.088;2022-12-29T09:56:00;94959.38;;;7.27;48.77
75166;BME280;63747;48.042;10.088;2022-12-29T09:59:09;94953.16;;;7.37;48.86
75166;BME280;63747;48.042;10.088;2022-12-29T10:25:43;94907.78;;;8.08;46.60
75166;BME280;63747;48.042;10.088;2022-12-29T10:28:51;94922.47;;;8.19;46.94
75166;BME280;63747;48.042;10.088;2022-12-29T10:32:02;94918.66;;;8.29;46.71
75166;BME280;63747;48.042;10.088;2022-12-29T10:35:14;94926.91;;;8.51;45.75
75166;BME280;63747;48.042;10.088;2022-12-29T10:42:09;94921.25;;;9.17;45.22
75166;BME280;63747;48.042;10.088;2022-12-29T10:45:01;94918.00;;;9.46;44.85
75166;BME280;63747;48.042;10.088;2022-12-29T10:48:21;94916.69;;;9.50;43.08
75166;BME280;63747;48.042;10.088;2022-12-29T10:51:26;94907.47;;;9.38;44.89
75166;BME280;63747;48.042;10.088;2022-12-29T10:57:47;94901.38;;;9.30;45.11
75166;BME280;63747;48.042;10.088;2022-12-29T11:00:52;94899.56;;;9.30;45.53
75166;BME280;63747;48.042;10.088;2022-12-29T11:07:00;94877.50;;;9.46;44.97
75166;BME280;63747;48.042;10.088;2022-12-29T11:13:47;94870.72;;;9.97;44.64
75166;BME280;63747;48.042;10.088;2022-12-29T11:16:57;94873.59;;;10.11;44.40
75166;BME280;63747;48.042;10.088;2022-12-29T11:19:58;94864.75;;;10.18;44.43
75166;BME280;63747;48.042;10.088;2022-12-29T11:23:00;94866.69;;;10.39;44.50
75166;BME280;63747;48.042;10.088;2022-12-29T11:26:12;94871.72;;;10.63;43.70
75166;BME280;63747;48.042;10.088;2022-12-29T11:35:36;94865.16;;;10.59;44.28
75166;BME280;63747;48.042;10.088;2022-12-29T11:38:40;94868.81;;;10.58;44.45
75166;BME280;63747;48.042;10.088;2022-12-29T11:41:51;94867.31;;;10.79;43.94
75166;BME280;63747;48.042;10.088;2022-12-29T11:44:52;94883.56;;;10.76;44.28
75166;BME280;63747;48.042;10.088;2022-12-29T11:47:59;94873.63;;;10.78;43.93
75166;BME280;63747;48.042;10.088;2022-12-29T11:51:02;94870.38;;;10.68;44.78
75166;BME280;63747;48.042;10.088;2022-12-29T11:54:03;94872.19;;;10.67;45.01
75166;BME280;63747;48.042;10.088;2022-12-29T11:57:11;94875.78;;;10.59;45.43
75166;BME280;63747;48.042;10.088;2022-12-29T12:00:18;94885.13;;;10.70;45.74
75166;BME280;63747;48.042;10.088;2022-12-29T12:03:23;94874.16;;;10.88;45.39
75166;BME280;63747;48.042;10.088;2022-12-29T12:06:26;94874.78;;;10.90;45.75
75166;BME280;63747;48.042;10.088;2022-12-29T12:09:57;94878.53;;;10.81;45.38
75166;BME280;63747;48.042;10.088;2022-12-29T12:13:06;94864.28;;;10.82;45.87
75166;BME280;63747;48.042;10.088;2022-12-29T12:16:15;94864.56;;;10.87;46.13
75166;BME280;63747;48.042;10.088;2022-12-29T12:22:27;94871.00;;;10.70;46.43
75166;BME280;63747;48.042;10.088;2022-12-29T12:26:02;94867.81;;;10.59;46.40
75166;BME280;63747;48.042;10.088;2022-12-29T12:29:14;94874.47;;;10.55;46.83
75166;BME280;63747;48.042;10.088;2022-12-29T12:32:59;94870.56;;;10.51;47.02
75166;BME280;63747;48.042;10.088;2022-12-29T12:39:27;94855.81;;;10.49;47.46
75166;BME280;63747;48.042;10.088;2022-12-29T12:45:51;94859.13;;;10.51;47.64
75166;BME280;63747;48.042;10.088;2022-12-29T13:09:31;94840.31;;;10.08;48.92
75166;BME280;63747;48.042;10.088;2022-12-29T13:19:41;94829.34;;;9.96;49.81
75166;BME280;63747;48.042;10.088;2022-12-29T13:22:54;94843.78;;;10.08;49.88
75166;BME280;63747;48.042;10.088;2022-12-29T13:26:20;94829.81;;;10.00;49.59
75166;BME280;63747;48.042;10.088;2022-12-29T13:29:36;94833.69;;;9.89;49.72
75166;BME280;63747;48.042;10.088;2022-12-29T13:33:03;94833.41;;;9.84;50.10
75166;BME280;63747;48.042;10.088;2022-12-29T13:36:25;94835.13;;;9.77;50.27
75166;BME280;63747;48.042;10.088;2022-12-29T13:39:37;94832.00;;;9.73;50.95
75166;BME280;63747;48.042;10.088;2022-12-29T13:42:40;94829.25;;;9.67;51.02
75166;BME280;63747;48.042;10.088;2022-12-29T13:45:42;94837.19;;;9.67;51.31
75166;BME280;63747;48.042;10.088;2022-12-29T13:49:06;94827.97;;;9.63;51.72
75166;BME280;63747;48.042;10.088;2022-12-29T13:52:21;94821.00;;;9.62;51.74
75166;BME280;63747;48.042;10.088;2022-12-29T13:55:54;94829.75;;;9.62;52.02
75166;BME280;63747;48.042;10.088;2022-12-29T13:59:14;94821.63;;;9.49;52.16
75166;BME280;63747;48.042;10.088;2022-12-29T14:05:45;94820.31;;;9.45;52.99
75166;BME280;63747;48.042;10.088;2022-12-29T14:09:05;94837.06;;;9.37;52.96
75166;BME280;63747;48.042;10.088;2022-12-29T14:12:20;94841.03;;;9.33;53.21
75166;BME280;63747;48.042;10.088;2022-12-29T14:15:23;94832.94;;;9.26;53.37
75166;BME280;63747;48.042;10.088;2022-12-29T14:18:28;94829.47;;;9.26;53.62
75166;BME280;63747;48.042;10.088;2022-12-29T14:21:29;94839.06;;;9.27;53.98
75166;BME280;63747;48.042;10.088;2022-12-29T14:27:43;94839.41;;;9.24;54.28
75166;BME280;63747;48.042;10.088;2022-12-29T14:30:50;94840.06;;;9.26;54.49
75166;BME280;63747;48.042;10.088;2022-12-29T14:37:28;94824.06;;;9.19;54.74
75166;BME280;63747;48.042;10.088;2022-12-29T14:40:29;94828.53;;;9.19;54.98
75166;BME280;63747;48.042;10.088;2022-12-29T14:43:30;94826.53;;;9.21;54.74
75166;BME280;63747;48.042;10.088;2022-12-29T14:46:56;94831.66;;;9.22;54.85
75166;BME280;63747;48.042;10.088;2022-12-29T14:53:05;94829.19;;;9.21;55.30
75166;BME280;63747;48.042;10.088;2022-12-29T14:56:09;94831.00;;;9.20;55.30
75166;BME280;63747;48.042;10.088;2022-12-29T14:59:10;94820.28;;;9.14;55.24
75166;BME280;63747;48.042;10.088;2022-12-29T15:02:20;94816.66;;;9.15;55.45
75166;BME280;63747;48.042;10.088;2022-12-29T15:05:28;94824.06;;;9.19;55.11
75166;BME280;63747;48.042;10.088;2022-12-29T15:08:32;94828.34;;;9.20;55.15
75166;BME280;63747;48.042;10.088;2022-12-29T15:14:38;94809.25;;;9.10;55.04
75166;BME280;63747;48.042;10.088;2022-12-29T15:17:39;94832.78;;;8.97;55.08
75166;BME280;63747;48.042;10.088;2022-12-29T15:20:42;94843.41;;;8.89;55.14
75166;BME280;63747;48.042;10.088;2022-12-29T15:23:45;94840.75;;;8.81;55.29
75166;BME280;63747;48.042;10.088;2022-12-29T15:26:47;94832.38;;;8.77;55.28
75166;BME280;63747;48.042;10.088;2022-12-29T15:29:58;94829.41;;;8.72;55.32
75166;BME280;63747;48.042;10.088;2022-12-29T15:32:59;94839.66;;;8.67;55.56
75166;BME280;63747;48.042;10.088;2022-12-29T15:36:03;94843.31;;;8.66;55.70
75166;BME280;63747;48.042;10.088;2022-12-29T15:39:34;94845.66;;;8.61;55.87
75166;BME280;63747;48.042;10.088;2022-12-29T15:45:57;94856.56;;;8.50;56.37
75166;BME280;63747;48.042;10.088;2022-12-29T15:48:58;94845.84;;;8.43;56.68
75166;BME280;63747;48.042;10.088;2022-12-29T15:51:59;94855.44;;;8.44;56.85
75166;BME280;63747;48.042;10.088;2022-12-29T15:55:01;94856.25;;;8.44;56.92
75166;BME280;63747;48.042;10.088;2022-12-29T15:58:05;94860.72;;;8.44;57.08
75166;BME280;63747;48.042;10.088;2022-12-29T16:01:17;94860.56;;;8.37;57.51
75166;BME280;63747;48.042;10.088;2022-12-29T16:04:18;94854.44;;;8.37;57.40
75166;BME280;63747;48.042;10.088;2022-12-29T16:07:30;94855.78;;;8.33;57.66
75166;BME280;63747;48.042;10.088;2022-12-29T16:10:39;94853.47;;;8.30;57.77
75166;BME280;63747;48.042;10.088;2022-12-29T16:13:42;94856.44;;;8.27;58.03
75166;BME280;63747;48.042;10.088;2022-12-29T16:16:45;94853.97;;;8.25;58.19
75166;BME280;63747;48.042;10.088;2022-12-29T16:19:54;94843.41;;;8.25;58.28
75166;BME280;63747;48.042;10.088;2022-12-29T16:22:57;94850.50;;;8.25;58.07
75166;BME280;63747;48.042;10.088;2022-12-29T16:25:59;94846.41;;;8.22;58.27
75166;BME280;63747;48.042;10.088;2022-12-29T16:29:01;94850.69;;;8.23;58.20
75166;BME280;63747;48.042;10.088;2022-12-29T16:35:25;94862.91;;;8.16;58.16
75166;BME280;63747;48.042;10.088;2022-12-29T16:38:31;94859.44;;;8.15;58.24
75166;BME280;63747;48.042;10.088;2022-12-29T16:41:33;94858.63;;;8.15;58.30
75166;BME280;63747;48.042;10.088;2022-12-29T16:44:34;94857.47;;;8.09;58.40
75166;BME280;63747;48.042;10.088;2022-12-29T16:47:36;94861.75;;;8.10;58.55
75166;BME280;63747;48.042;10.088;2022-12-29T16:50:37;94864.88;;;8.06;58.57
75166;BME280;63747;48.042;10.088;2022-12-29T16:53:40;94856.66;;;8.01;58.68
75166;BME280;63747;48.042;10.088;2022-12-29T16:56:43;94856.97;;;7.98;58.88
75166;BME280;63747;48.042;10.088;2022-12-29T16:59:45;94866.06;;;7.95;58.88
75166;BME280;63747;48.042;10.088;2022-12-29T17:02:45;94864.41;;;7.94;58.88
75166;BME280;63747;48.042;10.088;2022-12-29T17:05:46;94859.13;;;7.94;59.11
75166;BME280;63747;48.042;10.088;2022-12-29T17:08:48;94866.22;;;7.94;58.90
75166;BME280;63747;48.042;10.088;2022-12-29T17:11:54;94873.81;;;7.88;59.19
75166;BME280;63747;48.042;10.088;2022-12-29T17:14:58;94866.56;;;7.82;59.39
75166;BME280;63747;48.042;10.088;2022-12-29T17:18:00;94875.78;;;7.78;59.55
75166;BME280;63747;48.042;10.088;2022-12-29T17:21:01;94883.84;;;7.77;59.61
75166;BME280;63747;48.042;10.088;2022-12-29T17:24:04;94876.94;;;7.76;59.75
75166;BME280;63747;48.042;10.088;2022-12-29T17:27:12;94876.56;;;7.71;59.92
75166;BME280;63747;48.042;10.088;2022-12-29T17:30:21;94876.38;;;7.72;59.93
75166;BME280;63747;48.042;10.088;2022-12-29T17:33:24;94877.75;;;7.76;60.01
75166;BME280;63747;48.042;10.088;2022-12-29T17:36:25;94877.75;;;7.76;59.93
75166;BME280;63747;48.042;10.088;2022-12-29T17:39:26;94875.13;;;7.76;60.11
75166;BME280;63747;48.042;10.088;2022-12-29T17:42:26;94880.56;;;7.75;60.06
75166;BME280;63747;48.042;10.088;2022-12-29T17:45:31;94902.13;;;7.70;60.20
75166;BME280;63747;48.042;10.088;2022-12-29T17:48:32;94882.34;;;7.66;60.44
75166;BME280;63747;48.042;10.088;2022-12-29T17:51:33;94888.28;;;7.68;60.52
75166;BME280;63747;48.042;10.088;2022-12-29T17:54:34;94894.53;;;7.67;60.64
75166;BME280;63747;48.042;10.088;2022-12-29T17:57:34;94903.44;;;7.66;60.72
75166;BME280;63747;48.042;10.088;2022-12-29T18:00:35;94894.69;;;7.66;60.79
75166;BME280;63747;48.042;10.088;2022-12-29T18:03:38;94902.59;;;7.66;61.17
75166;BME280;63747;48.042;10.088;2022-12-29T18:06:39;94906.09;;;7.66;61.43
75166;BME280;63747;48.042;10.088;2022-12-29T18:09:41;94902.13;;;7.62;61.14
75166;BME280;63747;48.042;10.088;2022-12-29T18:12:47;94906.75;;;7.68;61.56
75166;BME280;63747;48.042;10.088;2022-12-29T18:15:48;94905.09;;;7.67;61.67
75166;BME280;63747;48.042;10.088;2022-12-29T18:18:49;94898.00;;;7.68;61.79
75166;BME280;63747;48.042;10.088;2022-12-29T18:21:50;94904.41;;;7.65;62.11